sensor_id;sensor_type;location;lat;lon;timestamp;temperature;humidity
52381;DHT22;38310;52.796;6.942;2022-12-18T00:00:43;-4.20;99.90
52381;DHT22;38310;52.796;6.942;2022-12-18T00:03:09;-4.10;99.90
52381;DHT22;38310;52.796;6.942;2022-12-18T00:05:35;-4.20;99.90
52381;DHT22;38310;52.796;6.942;2022-12-18T00:08:01;-4.20;99.90
52381;DHT22;38310;52.796;6.942;2022-12-18T00:10:28;-4.30;99.90
52381;DHT22;38310;52.796;6.942;2022-12-18T00:12:54;-4.30;99.90
52381;DHT22;38310;52.796;6.942;2022-12-18T00:15:20;-4.30;99.90
52381;DHT22;38310;52.796;6.942;2022-12-18T00:17:46;-4.30;99.90
52381;DHT22;38310;52.796;6.942;2022-12-18T00:20:11;-4.30;99.90
52381;DHT22;38310;52.796;6.942;2022-12-18T00:22:37;-4.30;99.90
52381;DHT22;38310;52.796;6.942;2022-12-18T00:25:03;-4.30;99.90
52381;DHT22;38310;52.796;6.942;2022-12-18T00:27:29;-6.10;99.90
52381;DHT22;38310;52.796;6.942;2022-12-18T00:29:55;-4.40;99.90
52381;DHT22;38310;52.796;6.942;2022-12-18T00:32:20;-4.10;99.90
52381;DHT22;38310;52.796;6.942;2022-12-18T00:34:46;-4.40;99.90
52381;DHT22;38310;52.796;6.942;2022-12-18T00:37:12;-4.40;99.90
52381;DHT22;38310;52.796;6.942;2022-12-18T00:39:37;-4.40;99.90
52381;DHT22;38310;52.796;6.942;2022-12-18T00:42:03;-4.40;99.90
52381;DHT22;38310;52.796;6.942;2022-12-18T00:44:47;-4.00;99.90
52381;DHT22;38310;52.796;6.942;2022-12-18T00:47:13;-4.60;99.90
52381;DHT22;38310;52.796;6.942;2022-12-18T00:49:38;-4.50;99.90
52381;DHT22;38310;52.796;6.942;2022-12-18T00:52:04;-4.60;99.90
52381;DHT22;38310;52.796;6.942;2022-12-18T00:54:30;-4.50;99.90
52381;DHT22;38310;52.796;6.942;2022-12-18T00:56:55;-6.00;99.90
52381;DHT22;38310;52.796;6.942;2022-12-18T00:59:21;-4.60;99.90
52381;DHT22;38310;52.796;6.942;2022-12-18T01:01:47;-4.70;99.90
52381;DHT22;38310;52.796;6.942;2022-12-18T01:04:13;-4.70;99.90
52381;DHT22;38310;52.796;6.942;2022-12-18T01:06:39;-4.70;99.90
52381;DHT22;38310;52.796;6.942;2022-12-18T01:09:05;-4.70;99.90
52381;DHT22;38310;52.796;6.942;2022-12-18T01:11:31;-4.80;99.90
52381;DHT22;38310;52.796;6.942;2022-12-18T01:13:56;-2.50;99.90
52381;DHT22;38310;52.796;6.942;2022-12-18T01:16:22;-4.90;99.90
52381;DHT22;38310;52.796;6.942;2022-12-18T01:18:52;-4.90;99.90
52381;DHT22;38310;52.796;6.942;2022-12-18T01:21:18;-4.90;99.90
52381;DHT22;38310;52.796;6.942;2022-12-18T01:23:43;-4.90;99.90
52381;DHT22;38310;52.796;6.942;2022-12-18T01:26:13;-3.20;99.90
52381;DHT22;38310;52.796;6.942;2022-12-18T01:28:39;-5.00;99.90
52381;DHT22;38310;52.796;6.942;2022-12-18T01:31:26;-5.00;99.90
52381;DHT22;38310;52.796;6.942;2022-12-18T01:33:52;-5.00;99.90
52381;DHT22;38310;52.796;6.942;2022-12-18T01:36:22;-5.10;99.90
52381;DHT22;38310;52.796;6.942;2022-12-18T01:38:49;-5.10;99.90
52381;DHT22;38310;52.796;6.942;2022-12-18T01:41:17;-5.10;99.90
52381;DHT22;38310;52.796;6.942;2022-12-18T01:46:18;-5.20;99.90
52381;DHT22;38310;52.796;6.942;2022-12-18T01:48:46;-5.20;99.90
52381;DHT22;38310;52.796;6.942;2022-12-18T01:51:12;-5.40;99.90
52381;DHT22;38310;52.796;6.942;2022-12-18T01:53:40;-5.50;99.90
52381;DHT22;38310;52.796;6.942;2022-12-18T01:56:06;-5.40;99.90
52381;DHT22;38310;52.796;6.942;2022-12-18T02:01:06;-5.60;99.90
52381;DHT22;38310;52.796;6.942;2022-12-18T02:03:32;-5.70;99.90
52381;DHT22;38310;52.796;6.942;2022-12-18T02:06:29;-5.80;99.90
52381;DHT22;38310;52.796;6.942;2022-12-18T02:09:12;-5.80;99.90
52381;DHT22;38310;52.796;6.942;2022-12-18T02:12:04;-5.80;99.90
52381;DHT22;38310;52.796;6.942;2022-12-18T02:17:18;-5.80;99.90
52381;DHT22;38310;52.796;6.942;2022-12-18T02:22:27;-5.90;99.90
52381;DHT22;38310;52.796;6.942;2022-12-18T02:27:46;-6.10;99.90
52381;DHT22;38310;52.796;6.942;2022-12-18T02:30:13;-6.10;99.90
52381;DHT22;38310;52.796;6.942;2022-12-18T02:32:47;-3.50;99.90
52381;DHT22;38310;52.796;6.942;2022-12-18T02:35:17;-6.10;99.90
52381;DHT22;38310;52.796;6.942;2022-12-18T02:37:46;-6.20;99.90
52381;DHT22;38310;52.796;6.942;2022-12-18T02:40:14;-6.30;99.90
52381;DHT22;38310;52.796;6.942;2022-12-18T02:42:41;-6.30;99.90
52381;DHT22;38310;52.796;6.942;2022-12-18T02:45:07;-6.30;99.90
52381;DHT22;38310;52.796;6.942;2022-12-18T02:47:37;-6.30;99.90
52381;DHT22;38310;52.796;6.942;2022-12-18T02:50:22;-5.40;99.90
52381;DHT22;38310;52.796;6.942;2022-12-18T02:56:05;-6.40;99.90
52381;DHT22;38310;52.796;6.942;2022-12-18T02:58:17;-6.30;99.90
52381;DHT22;38310;52.796;6.942;2022-12-18T03:00:52;-6.30;99.90
52381;DHT22;38310;52.796;6.942;2022-12-18T03:03:28;-8.30;99.90
52381;DHT22;38310;52.796;6.942;2022-12-18T03:05:57;-6.40;99.90
52381;DHT22;38310;52.796;6.942;2022-12-18T03:08:28;-6.50;99.90
52381;DHT22;38310;52.796;6.942;2022-12-18T03:10:58;-6.40;99.90
52381;DHT22;38310;52.796;6.942;2022-12-18T03:13:51;-6.40;99.90
52381;DHT22;38310;52.796;6.942;2022-12-18T03:16:20;-6.40;99.90
52381;DHT22;38310;52.796;6.942;2022-12-18T03:18:57;-6.40;99.90
52381;DHT22;38310;52.796;6.942;2022-12-18T03:21:29;-6.40;99.90
52381;DHT22;38310;52.796;6.942;2022-12-18T03:23:58;-6.40;99.90
52381;DHT22;38310;52.796;6.942;2022-12-18T03:26:25;-6.50;99.90
52381;DHT22;38310;52.796;6.942;2022-12-18T03:29:17;-6.40;99.90
52381;DHT22;38310;52.796;6.942;2022-12-18T03:31:49;-6.50;99.90
52381;DHT22;38310;52.796;6.942;2022-12-18T03:34:21;-6.50;99.90
52381;DHT22;38310;52.796;6.942;2022-12-18T03:36:48;-6.50;99.90
52381;DHT22;38310;52.796;6.942;2022-12-18T03:39:14;-6.50;99.90
52381;DHT22;38310;52.796;6.942;2022-12-18T03:41:44;-6.50;99.90
52381;DHT22;38310;52.796;6.942;2022-12-18T03:52:54;-6.60;99.90
52381;DHT22;38310;52.796;6.942;2022-12-18T03:55:22;-6.60;99.90
52381;DHT22;38310;52.796;6.942;2022-12-18T03:57:48;-6.70;99.90
52381;DHT22;38310;52.796;6.942;2022-12-18T04:00:17;-6.60;99.90
52381;DHT22;38310;52.796;6.942;2022-12-18T04:02:48;-4.30;99.90
52381;DHT22;38310;52.796;6.942;2022-12-18T04:05:15;-6.50;99.90
52381;DHT22;38310;52.796;6.942;2022-12-18T04:07:43;-5.90;99.90
52381;DHT22;38310;52.796;6.942;2022-12-18T04:10:10;-5.50;99.90
52381;DHT22;38310;52.796;6.942;2022-12-18T04:12:37;-4.40;99.90
52381;DHT22;38310;52.796;6.942;2022-12-18T04:15:04;-6.70;99.90
52381;DHT22;38310;52.796;6.942;2022-12-18T04:17:30;-6.80;99.90
52381;DHT22;38310;52.796;6.942;2022-12-18T04:19:55;-6.70;99.90
52381;DHT22;38310;52.796;6.942;2022-12-18T04:22:21;-7.10;99.90
52381;DHT22;38310;52.796;6.942;2022-12-18T04:24:47;-6.80;99.90
52381;DHT22;38310;52.796;6.942;2022-12-18T04:27:13;-6.70;99.90
52381;DHT22;38310;52.796;6.942;2022-12-18T04:29:38;-6.80;99.90
52381;DHT22;38310;52.796;6.942;2022-12-18T04:32:04;-6.80;99.90
52381;DHT22;38310;52.796;6.942;2022-12-18T04:34:30;-5.60;99.90
52381;DHT22;38310;52.796;6.942;2022-12-18T04:36:56;-6.80;99.90
52381;DHT22;38310;52.796;6.942;2022-12-18T04:39:21;-6.90;99.90
52381;DHT22;38310;52.796;6.942;2022-12-18T04:41:47;-6.70;99.90
52381;DHT22;38310;52.796;6.942;2022-12-18T04:44:13;-6.90;99.90
52381;DHT22;38310;52.796;6.942;2022-12-18T04:46:39;-6.80;99.90
52381;DHT22;38310;52.796;6.942;2022-12-18T04:49:04;-6.80;99.90
52381;DHT22;38310;52.796;6.942;2022-12-18T04:51:30;-6.90;99.90
52381;DHT22;38310;52.796;6.942;2022-12-18T04:53:56;-6.80;99.90
52381;DHT22;38310;52.796;6.942;2022-12-18T04:56:22;-6.60;99.90
52381;DHT22;38310;52.796;6.942;2022-12-18T04:58:48;-6.80;99.90
52381;DHT22;38310;52.796;6.942;2022-12-18T05:01:15;-4.20;99.90
52381;DHT22;38310;52.796;6.942;2022-12-18T05:03:41;-6.80;99.90
52381;DHT22;38310;52.796;6.942;2022-12-18T05:06:07;-6.80;99.90
52381;DHT22;38310;52.796;6.942;2022-12-18T05:08:33;-6.10;99.90
52381;DHT22;38310;52.796;6.942;2022-12-18T05:11:06;-6.30;99.90
52381;DHT22;38310;52.796;6.942;2022-12-18T05:13:33;-6.90;99.90
52381;DHT22;38310;52.796;6.942;2022-12-18T05:15:58;-6.60;99.90
52381;DHT22;38310;52.796;6.942;2022-12-18T05:18:25;-6.90;99.90
52381;DHT22;38310;52.796;6.942;2022-12-18T05:20:51;-7.00;99.90
52381;DHT22;38310;52.796;6.942;2022-12-18T05:23:19;-6.90;99.90
52381;DHT22;38310;52.796;6.942;2022-12-18T05:25:59;-6.90;99.90
52381;DHT22;38310;52.796;6.942;2022-12-18T05:28:27;-6.50;99.90
52381;DHT22;38310;52.796;6.942;2022-12-18T05:30:55;-6.90;99.90
52381;DHT22;38310;52.796;6.942;2022-12-18T05:33:23;-7.00;99.90
52381;DHT22;38310;52.796;6.942;2022-12-18T05:35:58;-7.10;99.90
52381;DHT22;38310;52.796;6.942;2022-12-18T05:38:28;-7.00;99.90
52381;DHT22;38310;52.796;6.942;2022-12-18T05:40:55;-7.50;99.90
52381;DHT22;38310;52.796;6.942;2022-12-18T05:43:22;-7.00;99.90
52381;DHT22;38310;52.796;6.942;2022-12-18T05:45:49;-6.30;99.90
52381;DHT22;38310;52.796;6.942;2022-12-18T05:48:15;-7.00;99.90
52381;DHT22;38310;52.796;6.942;2022-12-18T05:50:43;-6.80;99.90
52381;DHT22;38310;52.796;6.942;2022-12-18T05:53:11;-7.00;99.90
52381;DHT22;38310;52.796;6.942;2022-12-18T05:55:39;-7.10;99.90
52381;DHT22;38310;52.796;6.942;2022-12-18T05:58:07;-7.10;99.90
52381;DHT22;38310;52.796;6.942;2022-12-18T06:00:33;-7.00;99.90
52381;DHT22;38310;52.796;6.942;2022-12-18T06:03:01;-7.10;99.90
52381;DHT22;38310;52.796;6.942;2022-12-18T06:05:27;-6.80;99.90
52381;DHT22;38310;52.796;6.942;2022-12-18T06:07:53;-7.00;99.90
52381;DHT22;38310;52.796;6.942;2022-12-18T06:10:18;-7.10;99.90
52381;DHT22;38310;52.796;6.942;2022-12-18T06:12:44;-7.20;99.90
52381;DHT22;38310;52.796;6.942;2022-12-18T06:15:10;-7.50;99.90
52381;DHT22;38310;52.796;6.942;2022-12-18T06:17:36;-7.30;99.90
52381;DHT22;38310;52.796;6.942;2022-12-18T06:20:03;-7.30;99.90
52381;DHT22;38310;52.796;6.942;2022-12-18T06:22:31;-7.30;99.90
52381;DHT22;38310;52.796;6.942;2022-12-18T06:24:57;-7.30;99.90
52381;DHT22;38310;52.796;6.942;2022-12-18T06:27:23;-7.40;99.90
52381;DHT22;38310;52.796;6.942;2022-12-18T06:29:48;-7.40;99.90
52381;DHT22;38310;52.796;6.942;2022-12-18T06:32:14;-7.50;99.90
52381;DHT22;38310;52.796;6.942;2022-12-18T06:34:40;-5.60;99.90
52381;DHT22;38310;52.796;6.942;2022-12-18T06:37:05;-7.30;99.90
52381;DHT22;38310;52.796;6.942;2022-12-18T06:39:31;-7.20;99.90
52381;DHT22;38310;52.796;6.942;2022-12-18T06:41:57;-6.80;99.90
52381;DHT22;38310;52.796;6.942;2022-12-18T06:44:23;-7.30;99.90
52381;DHT22;38310;52.796;6.942;2022-12-18T06:46:48;-7.50;99.90
52381;DHT22;38310;52.796;6.942;2022-12-18T06:49:14;-7.30;99.90
52381;DHT22;38310;52.796;6.942;2022-12-18T06:51:41;-6.50;99.90
52381;DHT22;38310;52.796;6.942;2022-12-18T06:54:07;-7.30;99.90
52381;DHT22;38310;52.796;6.942;2022-12-18T06:56:33;-7.20;99.90
52381;DHT22;38310;52.796;6.942;2022-12-18T06:58:59;-7.40;99.90
52381;DHT22;38310;52.796;6.942;2022-12-18T07:01:25;-7.70;99.90
52381;DHT22;38310;52.796;6.942;2022-12-18T07:03:54;-7.30;99.90
52381;DHT22;38310;52.796;6.942;2022-12-18T07:06:22;-7.50;99.90
52381;DHT22;38310;52.796;6.942;2022-12-18T07:08:49;-8.20;99.90
52381;DHT22;38310;52.796;6.942;2022-12-18T07:11:16;-6.90;99.90
52381;DHT22;38310;52.796;6.942;2022-12-18T07:13:42;-7.30;99.90
52381;DHT22;38310;52.796;6.942;2022-12-18T07:16:16;-7.00;99.90
52381;DHT22;38310;52.796;6.942;2022-12-18T07:18:42;-6.80;99.90
52381;DHT22;38310;52.796;6.942;2022-12-18T07:21:15;-6.90;99.90
52381;DHT22;38310;52.796;6.942;2022-12-18T07:23:41;-7.50;99.90
52381;DHT22;38310;52.796;6.942;2022-12-18T07:26:15;-7.70;99.90
52381;DHT22;38310;52.796;6.942;2022-12-18T07:28:41;-7.40;99.90
52381;DHT22;38310;52.796;6.942;2022-12-18T07:31:19;-7.10;99.90
52381;DHT22;38310;52.796;6.942;2022-12-18T07:33:45;-7.30;99.90
52381;DHT22;38310;52.796;6.942;2022-12-18T07:36:12;-7.30;99.90
52381;DHT22;38310;52.796;6.942;2022-12-18T07:38:38;-6.70;99.90
52381;DHT22;38310;52.796;6.942;2022-12-18T07:41:05;-7.10;99.90
52381;DHT22;38310;52.796;6.942;2022-12-18T07:43:31;-6.40;99.90
52381;DHT22;38310;52.796;6.942;2022-12-18T07:45:58;-6.60;99.90
52381;DHT22;38310;52.796;6.942;2022-12-18T07:48:23;-7.00;99.90
52381;DHT22;38310;52.796;6.942;2022-12-18T07:50:49;-7.00;99.90
52381;DHT22;38310;52.796;6.942;2022-12-18T07:53:15;-7.10;99.90
52381;DHT22;38310;52.796;6.942;2022-12-18T07:55:41;-6.90;99.90
52381;DHT22;38310;52.796;6.942;2022-12-18T07:58:07;-6.20;99.90
52381;DHT22;38310;52.796;6.942;2022-12-18T08:00:33;-5.70;99.90
52381;DHT22;38310;52.796;6.942;2022-12-18T08:02:59;-5.20;99.90
52381;DHT22;38310;52.796;6.942;2022-12-18T08:05:25;-6.80;99.90
52381;DHT22;38310;52.796;6.942;2022-12-18T08:07:51;-6.70;99.90
52381;DHT22;38310;52.796;6.942;2022-12-18T08:10:17;-7.30;99.90
52381;DHT22;38310;52.796;6.942;2022-12-18T08:12:43;-6.80;99.90
52381;DHT22;38310;52.796;6.942;2022-12-18T08:15:09;-6.80;99.90
52381;DHT22;38310;52.796;6.942;2022-12-18T08:17:35;-6.60;99.90
52381;DHT22;38310;52.796;6.942;2022-12-18T08:20:01;-6.70;99.90
52381;DHT22;38310;52.796;6.942;2022-12-18T08:24:52;-6.50;99.90
52381;DHT22;38310;52.796;6.942;2022-12-18T08:27:18;-6.40;99.90
52381;DHT22;38310;52.796;6.942;2022-12-18T08:29:44;-6.70;99.90
52381;DHT22;38310;52.796;6.942;2022-12-18T08:32:10;-4.30;99.90
52381;DHT22;38310;52.796;6.942;2022-12-18T08:34:35;-6.30;99.90
52381;DHT22;38310;52.796;6.942;2022-12-18T08:37:01;-6.20;99.90
52381;DHT22;38310;52.796;6.942;2022-12-18T08:39:27;-6.30;99.90
52381;DHT22;38310;52.796;6.942;2022-12-18T08:41:52;-6.10;99.90
52381;DHT22;38310;52.796;6.942;2022-12-18T08:44:37;-6.10;99.90
52381;DHT22;38310;52.796;6.942;2022-12-18T08:47:03;-5.90;99.90
52381;DHT22;38310;52.796;6.942;2022-12-18T08:49:29;-5.90;99.90
52381;DHT22;38310;52.796;6.942;2022-12-18T08:51:55;-5.70;99.90
52381;DHT22;38310;52.796;6.942;2022-12-18T08:54:23;-5.90;99.90
52381;DHT22;38310;52.796;6.942;2022-12-18T08:56:48;-3.60;99.90
52381;DHT22;38310;52.796;6.942;2022-12-18T08:59:18;-5.40;99.90
52381;DHT22;38310;52.796;6.942;2022-12-18T09:01:45;-5.70;99.90
52381;DHT22;38310;52.796;6.942;2022-12-18T09:04:12;-5.70;99.90
52381;DHT22;38310;52.796;6.942;2022-12-18T09:06:38;-5.80;99.90
52381;DHT22;38310;52.796;6.942;2022-12-18T09:09:04;-5.60;99.90
52381;DHT22;38310;52.796;6.942;2022-12-18T09:11:31;-5.40;99.90
52381;DHT22;38310;52.796;6.942;2022-12-18T09:13:58;-5.40;99.90
52381;DHT22;38310;52.796;6.942;2022-12-18T09:16:25;-5.30;99.90
52381;DHT22;38310;52.796;6.942;2022-12-18T09:18:51;-5.40;99.90
52381;DHT22;38310;52.796;6.942;2022-12-18T09:21:20;-5.20;99.90
52381;DHT22;38310;52.796;6.942;2022-12-18T09:23:50;-5.20;99.90
52381;DHT22;38310;52.796;6.942;2022-12-18T09:26:16;-5.00;99.90
52381;DHT22;38310;52.796;6.942;2022-12-18T09:28:42;-4.60;99.90
52381;DHT22;38310;52.796;6.942;2022-12-18T09:31:09;-4.90;99.90
52381;DHT22;38310;52.796;6.942;2022-12-18T09:33:36;-4.90;99.90
52381;DHT22;38310;52.796;6.942;2022-12-18T09:36:03;-4.10;99.90
52381;DHT22;38310;52.796;6.942;2022-12-18T09:38:29;-4.70;99.90
52381;DHT22;38310;52.796;6.942;2022-12-18T09:43:49;-4.70;99.90
52381;DHT22;38310;52.796;6.942;2022-12-18T09:46:34;-4.60;99.90
52381;DHT22;38310;52.796;6.942;2022-12-18T09:49:09;-4.00;99.90
52381;DHT22;38310;52.796;6.942;2022-12-18T09:51:45;-4.50;99.90
52381;DHT22;38310;52.796;6.942;2022-12-18T09:54:18;-4.40;99.90
52381;DHT22;38310;52.796;6.942;2022-12-18T09:56:46;-4.30;99.90
52381;DHT22;38310;52.796;6.942;2022-12-18T09:59:34;-4.30;99.90
52381;DHT22;38310;52.796;6.942;2022-12-18T10:02:30;-4.20;99.90
52381;DHT22;38310;52.796;6.942;2022-12-18T10:05:04;-4.10;99.90
52381;DHT22;38310;52.796;6.942;2022-12-18T10:08:08;-4.00;99.90
52381;DHT22;38310;52.796;6.942;2022-12-18T10:11:01;-3.90;99.90
52381;DHT22;38310;52.796;6.942;2022-12-18T10:13:45;-3.80;99.90
52381;DHT22;38310;52.796;6.942;2022-12-18T10:16:17;-3.80;99.90
52381;DHT22;38310;52.796;6.942;2022-12-18T10:18:54;-4.10;99.90
52381;DHT22;38310;52.796;6.942;2022-12-18T10:27:06;-3.40;99.90
52381;DHT22;38310;52.796;6.942;2022-12-18T10:29:35;-3.30;99.90
52381;DHT22;38310;52.796;6.942;2022-12-18T10:32:00;-3.30;99.90
52381;DHT22;38310;52.796;6.942;2022-12-18T10:34:26;-3.30;99.90
52381;DHT22;38310;52.796;6.942;2022-12-18T10:36:51;-2.60;99.90
52381;DHT22;38310;52.796;6.942;2022-12-18T10:39:23;-3.20;99.90
52381;DHT22;38310;52.796;6.942;2022-12-18T10:41:49;-3.20;99.90
52381;DHT22;38310;52.796;6.942;2022-12-18T10:44:18;-3.20;99.90
52381;DHT22;38310;52.796;6.942;2022-12-18T10:46:48;-3.10;99.90
52381;DHT22;38310;52.796;6.942;2022-12-18T10:49:27;-2.30;99.90
52381;DHT22;38310;52.796;6.942;2022-12-18T10:52:18;-0.90;99.90
52381;DHT22;38310;52.796;6.942;2022-12-18T10:54:50;-3.00;99.90
52381;DHT22;38310;52.796;6.942;2022-12-18T10:57:35;-3.10;99.90
52381;DHT22;38310;52.796;6.942;2022-12-18T11:02:48;-2.90;99.90
52381;DHT22;38310;52.796;6.942;2022-12-18T11:05:26;-1.80;99.90
52381;DHT22;38310;52.796;6.942;2022-12-18T11:07:52;-2.80;99.90
52381;DHT22;38310;52.796;6.942;2022-12-18T11:10:39;-2.30;99.90
52381;DHT22;38310;52.796;6.942;2022-12-18T11:13:22;-2.80;99.90
52381;DHT22;38310;52.796;6.942;2022-12-18T11:15:49;-2.00;99.90
52381;DHT22;38310;52.796;6.942;2022-12-18T11:18:33;-2.80;99.90
52381;DHT22;38310;52.796;6.942;2022-12-18T11:21:11;-4.60;99.90
52381;DHT22;38310;52.796;6.942;2022-12-18T11:23:46;-0.80;99.90
52381;DHT22;38310;52.796;6.942;2022-12-18T11:26:13;-2.80;99.90
52381;DHT22;38310;52.796;6.942;2022-12-18T11:28:49;-2.70;99.90
52381;DHT22;38310;52.796;6.942;2022-12-18T11:31:27;-2.70;99.90
52381;DHT22;38310;52.796;6.942;2022-12-18T11:36:52;-2.60;99.90
52381;DHT22;38310;52.796;6.942;2022-12-18T11:39:37;-2.60;99.90
52381;DHT22;38310;52.796;6.942;2022-12-18T11:42:12;-2.40;99.90
52381;DHT22;38310;52.796;6.942;2022-12-18T11:49:41;0.10;99.90
52381;DHT22;38310;52.796;6.942;2022-12-18T11:54:42;-0.30;99.90
52381;DHT22;38310;52.796;6.942;2022-12-18T11:57:18;-2.30;99.90
52381;DHT22;38310;52.796;6.942;2022-12-18T12:00:02;-2.20;99.90
52381;DHT22;38310;52.796;6.942;2022-12-18T12:17:11;-2.00;99.90
52381;DHT22;38310;52.796;6.942;2022-12-18T12:25:25;-1.90;99.90
52381;DHT22;38310;52.796;6.942;2022-12-18T12:33:32;-1.80;99.90
52381;DHT22;38310;52.796;6.942;2022-12-18T12:36:19;-1.80;99.90
52381;DHT22;38310;52.796;6.942;2022-12-18T12:38:55;-1.80;99.90
52381;DHT22;38310;52.796;6.942;2022-12-18T12:41:24;-1.80;99.90
52381;DHT22;38310;52.796;6.942;2022-12-18T12:44:18;-1.80;99.90
52381;DHT22;38310;52.796;6.942;2022-12-18T12:46:47;-1.80;99.90
52381;DHT22;38310;52.796;6.942;2022-12-18T12:49:17;-1.70;99.90
52381;DHT22;38310;52.796;6.942;2022-12-18T12:51:47;-1.70;99.90
52381;DHT22;38310;52.796;6.942;2022-12-18T12:54:22;-0.30;99.90
52381;DHT22;38310;52.796;6.942;2022-12-18T12:56:59;0.30;99.90
52381;DHT22;38310;52.796;6.942;2022-12-18T13:02:27;-1.60;99.90
52381;DHT22;38310;52.796;6.942;2022-12-18T13:05:21;-1.60;99.90
52381;DHT22;38310;52.796;6.942;2022-12-18T13:13:11;-1.50;99.90
52381;DHT22;38310;52.796;6.942;2022-12-18T13:16:02;-1.40;99.90
52381;DHT22;38310;52.796;6.942;2022-12-18T13:18:28;-1.50;99.90
52381;DHT22;38310;52.796;6.942;2022-12-18T13:25:52;-1.40;99.90
52381;DHT22;38310;52.796;6.942;2022-12-18T13:31:11;-1.40;99.90
52381;DHT22;38310;52.796;6.942;2022-12-18T13:39:09;-0.20;99.90
52381;DHT22;38310;52.796;6.942;2022-12-18T13:41:33;-1.40;99.90
52381;DHT22;38310;52.796;6.942;2022-12-18T13:44:52;-1.40;99.90
52381;DHT22;38310;52.796;6.942;2022-12-18T13:47:32;-1.40;99.90
52381;DHT22;38310;52.796;6.942;2022-12-18T13:50:00;-1.40;99.90
52381;DHT22;38310;52.796;6.942;2022-12-18T13:52:28;-0.90;99.90
52381;DHT22;38310;52.796;6.942;2022-12-18T13:54:59;-1.50;99.90
52381;DHT22;38310;52.796;6.942;2022-12-18T13:57:35;-1.40;99.90
52381;DHT22;38310;52.796;6.942;2022-12-18T14:02:48;-1.50;99.90
52381;DHT22;38310;52.796;6.942;2022-12-18T14:07:49;-1.40;99.90
52381;DHT22;38310;52.796;6.942;2022-12-18T14:10:16;-1.50;99.90
52381;DHT22;38310;52.796;6.942;2022-12-18T14:12:46;-1.50;99.90
52381;DHT22;38310;52.796;6.942;2022-12-18T14:18:51;-1.60;99.90
52381;DHT22;38310;52.796;6.942;2022-12-18T14:21:29;-1.60;99.90
52381;DHT22;38310;52.796;6.942;2022-12-18T14:24:13;-1.70;99.90
52381;DHT22;38310;52.796;6.942;2022-12-18T14:26:40;-1.70;99.90
52381;DHT22;38310;52.796;6.942;2022-12-18T14:29:35;-1.70;99.90
52381;DHT22;38310;52.796;6.942;2022-12-18T14:32:15;-1.70;99.90
52381;DHT22;38310;52.796;6.942;2022-12-18T14:34:47;-1.90;99.90
52381;DHT22;38310;52.796;6.942;2022-12-18T14:37:21;-1.80;99.90
52381;DHT22;38310;52.796;6.942;2022-12-18T14:40:04;-1.80;99.90
52381;DHT22;38310;52.796;6.942;2022-12-18T14:42:31;-1.80;99.90
52381;DHT22;38310;52.796;6.942;2022-12-18T14:48:00;-1.80;99.90
52381;DHT22;38310;52.796;6.942;2022-12-18T14:50:31;-1.80;99.90
52381;DHT22;38310;52.796;6.942;2022-12-18T14:52:57;-1.90;99.90
52381;DHT22;38310;52.796;6.942;2022-12-18T14:55:22;-1.90;99.90
52381;DHT22;38310;52.796;6.942;2022-12-18T14:57:53;-1.90;99.90
52381;DHT22;38310;52.796;6.942;2022-12-18T15:00:22;-1.90;99.90
52381;DHT22;38310;52.796;6.942;2022-12-18T15:02:54;-1.90;99.90
52381;DHT22;38310;52.796;6.942;2022-12-18T15:05:29;-1.90;99.90
52381;DHT22;38310;52.796;6.942;2022-12-18T15:07:58;-1.90;99.90
52381;DHT22;38310;52.796;6.942;2022-12-18T15:10:34;-1.90;99.90
52381;DHT22;38310;52.796;6.942;2022-12-18T15:18:00;-1.90;99.90
52381;DHT22;38310;52.796;6.942;2022-12-18T15:20:26;-1.40;99.90
52381;DHT22;38310;52.796;6.942;2022-12-18T15:22:52;-0.20;99.90
52381;DHT22;38310;52.796;6.942;2022-12-18T15:25:36;-2.00;99.90
52381;DHT22;38310;52.796;6.942;2022-12-18T15:28:04;0.40;99.90
52381;DHT22;38310;52.796;6.942;2022-12-18T15:33:31;-2.00;99.90
52381;DHT22;38310;52.796;6.942;2022-12-18T15:36:03;-2.00;99.90
52381;DHT22;38310;52.796;6.942;2022-12-18T15:38:29;-1.10;99.90
52381;DHT22;38310;52.796;6.942;2022-12-18T15:40:55;0.80;99.90
52381;DHT22;38310;52.796;6.942;2022-12-18T15:43:23;-1.80;99.90
52381;DHT22;38310;52.796;6.942;2022-12-18T15:48:35;-1.90;99.90
52381;DHT22;38310;52.796;6.942;2022-12-18T15:51:07;-0.20;99.90
52381;DHT22;38310;52.796;6.942;2022-12-18T15:53:37;-1.90;99.90
52381;DHT22;38310;52.796;6.942;2022-12-18T15:56:07;-1.90;99.90
52381;DHT22;38310;52.796;6.942;2022-12-18T15:58:53;-1.90;99.90
52381;DHT22;38310;52.796;6.942;2022-12-18T16:01:20;-1.30;99.90
52381;DHT22;38310;52.796;6.942;2022-12-18T16:03:47;-1.90;99.90
52381;DHT22;38310;52.796;6.942;2022-12-18T16:06:13;-2.00;99.90
52381;DHT22;38310;52.796;6.942;2022-12-18T16:08:39;0.40;99.90
52381;DHT22;38310;52.796;6.942;2022-12-18T16:11:05;-0.90;99.90
52381;DHT22;38310;52.796;6.942;2022-12-18T16:13:31;-1.90;99.90
52381;DHT22;38310;52.796;6.942;2022-12-18T16:15:57;-0.60;99.90
52381;DHT22;38310;52.796;6.942;2022-12-18T16:18:22;0.30;99.90
52381;DHT22;38310;52.796;6.942;2022-12-18T16:20:48;-2.00;99.90
52381;DHT22;38310;52.796;6.942;2022-12-18T16:23:14;-1.90;99.90
52381;DHT22;38310;52.796;6.942;2022-12-18T16:25:40;-2.00;99.90
52381;DHT22;38310;52.796;6.942;2022-12-18T16:28:05;-0.70;99.90
52381;DHT22;38310;52.796;6.942;2022-12-18T16:30:31;-2.20;99.90
52381;DHT22;38310;52.796;6.942;2022-12-18T16:32:58;-1.90;99.90
52381;DHT22;38310;52.796;6.942;2022-12-18T16:35:24;-0.90;99.90
52381;DHT22;38310;52.796;6.942;2022-12-18T16:37:50;-0.80;99.90
52381;DHT22;38310;52.796;6.942;2022-12-18T16:40:17;-1.80;99.90
52381;DHT22;38310;52.796;6.942;2022-12-18T16:42:44;-1.90;99.90
52381;DHT22;38310;52.796;6.942;2022-12-18T16:45:16;-1.80;99.90
52381;DHT22;38310;52.796;6.942;2022-12-18T16:47:42;-1.80;99.90
52381;DHT22;38310;52.796;6.942;2022-12-18T16:50:08;-1.80;99.90
52381;DHT22;38310;52.796;6.942;2022-12-18T16:52:34;-1.80;99.90
52381;DHT22;38310;52.796;6.942;2022-12-18T16:55:00;-1.20;99.90
52381;DHT22;38310;52.796;6.942;2022-12-18T16:57:26;-1.80;99.90
52381;DHT22;38310;52.796;6.942;2022-12-18T16:59:52;-1.90;99.90
52381;DHT22;38310;52.796;6.942;2022-12-18T17:02:23;0.40;99.90
52381;DHT22;38310;52.796;6.942;2022-12-18T17:04:49;-1.60;99.90
52381;DHT22;38310;52.796;6.942;2022-12-18T17:07:15;-1.80;99.90
52381;DHT22;38310;52.796;6.942;2022-12-18T17:09:41;-1.00;99.90
52381;DHT22;38310;52.796;6.942;2022-12-18T17:12:08;-1.80;99.90
52381;DHT22;38310;52.796;6.942;2022-12-18T17:14:34;-1.80;99.90
52381;DHT22;38310;52.796;6.942;2022-12-18T17:17:00;0.10;99.90
52381;DHT22;38310;52.796;6.942;2022-12-18T17:19:26;-1.80;99.90
52381;DHT22;38310;52.796;6.942;2022-12-18T17:21:52;-1.80;99.90
52381;DHT22;38310;52.796;6.942;2022-12-18T17:24:18;-1.70;99.90
52381;DHT22;38310;52.796;6.942;2022-12-18T17:26:44;-0.70;99.90
52381;DHT22;38310;52.796;6.942;2022-12-18T17:29:14;-1.70;99.90
52381;DHT22;38310;52.796;6.942;2022-12-18T17:31:40;-1.70;99.90
52381;DHT22;38310;52.796;6.942;2022-12-18T17:34:06;0.50;99.90
52381;DHT22;38310;52.796;6.942;2022-12-18T17:36:33;0.60;99.90
52381;DHT22;38310;52.796;6.942;2022-12-18T17:39:01;-0.30;99.90
52381;DHT22;38310;52.796;6.942;2022-12-18T17:41:28;-1.60;99.90
52381;DHT22;38310;52.796;6.942;2022-12-18T17:43:56;-1.60;99.90
52381;DHT22;38310;52.796;6.942;2022-12-18T17:46:23;-1.60;99.90